National Weather Service Raw Text Product

Displaying AFOS PIL: TAFFOD Received: 2018-02-09 23:29 UTC


698 
FTUS43 KDMX 092329
TAFFOD
TAF
KFOD 092329Z 1000/1024 01006KT P6SM BKN120
     FM100400 35006KT P6SM VCSH SCT040 OVC060
     FM100600 35005KT P6SM BKN080
     FM101500 32006KT P6SM BKN150=